Time;durP1;ratioP1;P1;durP2;ratioP2;P2;SDS_P1;SDS_P2;PMS_P1;PMS_P2;Temp;Humidity;BMP_temperature;BMP_pressure;BME280_temperature;BME280_humidity;BME280_pressure;Samples;Min_cycle;Max_cycle;Signal;HPM_P1;HPM_P2
2023/03/19 00:01:40;;;;;;;29.10;24.27;;;9.10;89.60;;;;;;4973958;28;20665;-90
2023/03/19 00:04:06;;;;;;;29.67;26.50;;;9.00;89.50;;;;;;4974903;28;20297;-88
2023/03/19 00:06:32;;;;;;;28.30;25.20;;;9.00;89.50;;;;;;4973806;28;20649;-88
2023/03/19 00:08:58;;;;;;;28.07;25.00;;;8.80;89.50;;;;;;4974365;28;20205;-89
2023/03/19 00:11:23;;;;;;;29.93;26.83;;;8.70;89.80;;;;;;4958275;28;20728;-91
2023/03/19 00:13:49;;;;;;;29.53;26.63;;;8.80;90.00;;;;;;4973731;28;20305;-88
2023/03/19 00:16:15;;;;;;;26.90;24.20;;;8.80;89.90;;;;;;4973788;28;20307;-88
2023/03/19 00:18:40;;;;;;;27.83;24.87;;;8.80;89.80;;;;;;4958459;28;20309;-87
2023/03/19 00:21:06;;;;;;;28.50;25.57;;;8.70;89.70;;;;;;4973414;28;20195;-87
2023/03/19 00:23:31;;;;;;;29.13;26.23;;;8.60;89.70;;;;;;4974709;28;20179;-87
2023/03/19 00:25:57;;;;;;;31.40;27.47;;;8.60;89.60;;;;;;4957475;28;20217;-87
2023/03/19 00:28:22;;;;;;;32.03;28.73;;;8.60;89.60;;;;;;4956562;28;20270;-88
2023/03/19 00:30:48;;;;;;;30.77;27.27;;;8.50;89.60;;;;;;4957616;28;20185;-87
2023/03/19 00:33:13;;;;;;;28.30;25.40;;;8.50;89.60;;;;;;4974619;28;20210;-88
2023/03/19 00:35:40;;;;;;;26.83;24.03;;;8.30;89.50;;;;;;4957346;28;20198;-88
2023/03/19 00:38:05;;;;;;;25.40;22.70;;;8.20;89.50;;;;;;4974535;28;20177;-88
2023/03/19 00:40:32;;;;;;;24.90;22.40;;;8.10;89.40;;;;;;4973453;28;20187;-87
2023/03/19 00:42:58;;;;;;;25.07;22.60;;;8.00;89.20;;;;;;4973396;28;20273;-87
2023/03/19 00:45:23;;;;;;;24.63;22.13;;;7.90;89.00;;;;;;4957275;28;20321;-87
2023/03/19 00:47:49;;;;;;;25.60;23.07;;;7.90;89.00;;;;;;4957393;28;20721;-88
2023/03/19 00:50:14;;;;;;;22.40;20.47;;;7.80;89.00;;;;;;4957408;28;20183;-88
2023/03/19 00:52:40;;;;;;;24.80;22.50;;;7.80;88.90;;;;;;4957277;28;20270;-87
2023/03/19 00:55:06;;;;;;;26.60;23.47;;;7.70;88.80;;;;;;4973086;28;20202;-87
2023/03/19 00:57:32;;;;;;;25.10;22.67;;;7.60;88.70;;;;;;4973314;28;20189;-87
2023/03/19 00:59:57;;;;;;;26.03;23.03;;;7.60;88.70;;;;;;4974467;28;20175;-87
2023/03/19 01:02:24;;;;;;;24.70;22.13;;;7.60;88.70;;;;;;4973184;28;20186;-87
2023/03/19 01:04:50;;;;;;;24.40;21.33;;;7.50;88.60;;;;;;4974310;28;20208;-87
2023/03/19 01:07:15;;;;;;;25.10;22.80;;;7.50;88.60;;;;;;4957058;28;20708;-88
2023/03/19 01:09:41;;;;;;;25.80;23.20;;;7.40;88.60;;;;;;4957103;28;20179;-88
2023/03/19 01:12:07;;;;;;;25.50;22.80;;;7.30;88.50;;;;;;4956993;28;20266;-87
2023/03/19 01:14:33;;;;;;;25.07;22.70;;;7.30;88.50;;;;;;4974233;28;20282;-87
2023/03/19 01:17:00;;;;;;;24.73;22.40;;;7.30;88.50;;;;;;4973035;28;20337;-87
2023/03/19 01:19:26;;;;;;;25.27;22.73;;;7.20;88.60;;;;;;4973188;28;20186;-88
2023/03/19 01:21:51;;;;;;;23.90;21.70;;;7.20;88.50;;;;;;4973387;28;20289;-88
2023/03/19 01:24:17;;;;;;;20.83;18.93;;;7.20;88.50;;;;;;4973006;28;20301;-88
2023/03/19 01:26:43;;;;;;;21.63;19.57;;;7.10;88.40;;;;;;4974493;28;20189;-88
2023/03/19 01:29:08;;;;;;;21.97;19.67;;;7.00;88.30;;;;;;4972977;28;20601;-87
2023/03/19 01:31:36;;;;;;;24.20;22.00;;;6.90;88.20;;;;;;4972979;28;20179;-87
2023/03/19 01:34:02;;;;;;;64.40;27.77;;;6.80;88.10;;;;;;4972877;28;20572;-87
2023/03/19 01:36:28;;;;;;;119.70;24.80;;;6.80;88.30;;;;;;4972956;28;20230;-88
2023/03/19 01:38:53;;;;;;;28.07;25.03;;;6.80;88.80;;;;;;4973993;28;20266;-88
2023/03/19 01:41:19;;;;;;;32.27;29.20;;;6.90;89.20;;;;;;4976540;28;20213;-88
2023/03/19 01:43:45;;;;;;;39.00;29.77;;;7.00;89.80;;;;;;4976489;28;20669;-88
2023/03/19 01:46:24;;;;;;;32.67;29.20;;;7.10;90.30;;;;;;4960314;28;20170;-87
2023/03/19 01:48:54;;;;;;;32.33;29.17;;;7.20;90.50;;;;;;4977373;28;20197;-88
2023/03/19 01:51:25;;;;;;;33.20;29.77;;;7.10;90.70;;;;;;4977645;28;20206;-88
2023/03/19 01:53:54;;;;;;;33.40;30.20;;;7.00;90.80;;;;;;4976358;28;20202;-87
2023/03/19 01:56:37;;;;;;;32.50;29.30;;;6.90;91.00;;;;;;4976384;28;20186;-87
2023/03/19 01:59:27;;;;;;;31.40;28.50;;;6.80;91.20;;;;;;4976475;28;20202;-87
2023/03/19 02:02:01;;;;;;;30.37;27.57;;;6.80;91.30;;;;;;4967010;28;20190;-87
2023/03/19 02:04:29;;;;;;;31.53;28.23;;;6.70;91.40;;;;;;4976171;28;20210;-87
2023/03/19 02:06:56;;;;;;;31.80;28.57;;;6.70;91.50;;;;;;4976307;28;20171;-87
2023/03/19 02:09:24;;;;;;;30.30;27.40;;;6.60;91.70;;;;;;4976085;28;20547;-87
2023/03/19 02:11:51;;;;;;;29.63;25.23;;;6.60;91.70;;;;;;4976617;28;20178;-87
2023/03/19 02:14:17;;;;;;;27.80;25.13;;;6.60;91.80;;;;;;4976074;28;20289;-87
2023/03/19 02:16:43;;;;;;;26.63;23.93;;;6.50;91.80;;;;;;4960042;28;20210;-88
2023/03/19 02:19:12;;;;;;;25.90;23.20;;;6.50;91.70;;;;;;4960093;28;20186;-87
2023/03/19 02:21:37;;;;;;;25.30;22.90;;;6.40;91.70;;;;;;4976092;28;20334;-87
2023/03/19 02:24:06;;;;;;;24.93;22.60;;;6.40;91.70;;;;;;4959623;28;20570;-87
2023/03/19 02:26:32;;;;;;;23.97;21.47;;;6.30;91.60;;;;;;4975846;28;20175;-88
2023/03/19 02:28:58;;;;;;;22.57;20.50;;;6.30;91.70;;;;;;4975937;28;20246;-87
2023/03/19 02:31:24;;;;;;;23.80;21.53;;;6.30;91.60;;;;;;4959682;28;20213;-88
2023/03/19 02:34:05;;;;;;;26.83;24.30;;;6.20;91.60;;;;;;4976942;28;20195;-87
2023/03/19 02:36:37;;;;;;;24.93;22.73;;;6.30;91.50;;;;;;4977348;28;20275;-87
2023/03/19 02:39:06;;;;;;;28.67;25.57;;;6.30;91.60;;;;;;4976366;28;20174;-88
2023/03/19 02:41:33;;;;;;;28.90;26.20;;;6.40;91.70;;;;;;4975786;28;20233;-87
2023/03/19 02:44:02;;;;;;;71.73;28.33;;;6.50;91.90;;;;;;4975507;28;20238;-87
2023/03/19 02:46:28;;;;;;;94.13;28.60;;;6.60;92.00;;;;;;4975515;28;20270;-87
2023/03/19 02:48:53;;;;;;;33.03;29.47;;;6.60;92.10;;;;;;4975534;28;20668;-87
2023/03/19 02:51:19;;;;;;;30.53;27.50;;;6.60;92.30;;;;;;4958554;28;20229;-87
2023/03/19 02:53:45;;;;;;;29.20;26.40;;;6.50;92.40;;;;;;4976462;28;20242;-88
2023/03/19 02:56:11;;;;;;;30.30;27.60;;;6.50;92.40;;;;;;4975353;28;20179;-87
2023/03/19 02:58:36;;;;;;;27.57;24.87;;;6.50;92.50;;;;;;4975258;28;20189;-87
2023/03/19 03:01:02;;;;;;;29.00;26.27;;;6.50;92.60;;;;;;4975516;28;20194;-87
2023/03/19 03:03:28;;;;;;;27.73;25.03;;;6.50;92.60;;;;;;4975244;28;20174;-88
2023/03/19 03:05:54;;;;;;;26.27;23.80;;;6.50;92.70;;;;;;4976611;28;20301;-87
2023/03/19 03:08:19;;;;;;;26.07;23.67;;;6.50;92.70;;;;;;4976664;28;20701;-87
2023/03/19 03:10:45;;;;;;;27.07;24.27;;;6.40;92.70;;;;;;4976561;28;20185;-86
2023/03/19 03:13:10;;;;;;;25.13;22.43;;;6.30;92.80;;;;;;4959411;28;20198;-87
2023/03/19 03:15:36;;;;;;;24.47;22.10;;;6.30;92.70;;;;;;4976237;28;20545;-87
2023/03/19 03:18:02;;;;;;;25.33;22.93;;;6.30;92.80;;;;;;4958880;28;20238;-87
2023/03/19 03:20:28;;;;;;;22.97;20.87;;;6.30;92.80;;;;;;4958893;28;20195;-87
2023/03/19 03:22:53;;;;;;;23.40;20.90;;;6.30;92.80;;;;;;4974850;28;20230;-88
2023/03/19 03:25:19;;;;;;;21.50;19.57;;;6.30;92.80;;;;;;4974730;28;20279;-87
2023/03/19 03:27:45;;;;;;;23.60;21.40;;;6.30;92.80;;;;;;4975952;28;20516;-87
2023/03/19 03:30:11;;;;;;;21.63;19.60;;;6.30;92.80;;;;;;4958790;28;20233;-87
2023/03/19 03:32:38;;;;;;;23.40;20.90;;;6.30;92.80;;;;;;4975804;28;20194;-87
2023/03/19 03:35:05;;;;;;;21.43;19.53;;;6.30;92.80;;;;;;4976016;28;20191;-88
2023/03/19 03:37:30;;;;;;;22.43;20.33;;;6.30;92.70;;;;;;4975110;28;20562;-87
2023/03/19 03:39:56;;;;;;;22.43;20.30;;;6.30;92.70;;;;;;4975899;28;20190;-87
2023/03/19 03:42:21;;;;;;;24.20;21.77;;;6.30;92.80;;;;;;4975838;28;20185;-87
2023/03/19 03:44:47;;;;;;;24.90;22.60;;;6.40;92.80;;;;;;4974423;28;20235;-87
2023/03/19 03:47:12;;;;;;;24.90;22.47;;;6.50;92.90;;;;;;4976027;28;20170;-87
2023/03/19 03:49:38;;;;;;;25.10;22.43;;;6.50;92.90;;;;;;4974636;28;20522;-87
2023/03/19 03:52:04;;;;;;;23.87;21.67;;;6.50;92.90;;;;;;4974910;28;20823;-88
2023/03/19 03:54:29;;;;;;;23.83;21.23;;;6.60;93.00;;;;;;4974315;28;20207;-87
2023/03/19 03:56:55;;;;;;;23.53;21.33;;;6.60;93.00;;;;;;4974397;28;20659;-88
2023/03/19 03:59:20;;;;;;;23.27;21.17;;;6.60;93.00;;;;;;4975661;28;20186;-87
2023/03/19 04:01:46;;;;;;;21.77;19.77;;;6.70;93.10;;;;;;4958088;28;20187;-87
2023/03/19 04:04:11;;;;;;;22.90;20.63;;;6.70;93.20;;;;;;4957917;28;20229;-87
2023/03/19 04:06:37;;;;;;;22.57;20.37;;;6.80;93.30;;;;;;4958131;28;20182;-87
2023/03/19 04:09:03;;;;;;;20.93;18.83;;;6.90;93.40;;;;;;4958304;28;20182;-88
2023/03/19 04:11:29;;;;;;;19.70;18.20;;;7.00;93.40;;;;;;4976009;28;20171;-87
2023/03/19 04:13:56;;;;;;;21.37;19.17;;;7.10;93.50;;;;;;4957839;28;20195;-87
2023/03/19 04:16:22;;;;;;;20.87;19.27;;;7.20;93.60;;;;;;4974196;28;20186;-87
2023/03/19 04:18:48;;;;;;;20.10;18.40;;;7.30;93.60;;;;;;4975591;28;20174;-88
2023/03/19 04:21:13;;;;;;;21.00;19.10;;;7.40;93.70;;;;;;4973978;28;20195;-88
2023/03/19 04:23:39;;;;;;;19.27;17.87;;;7.50;93.70;;;;;;4974079;28;20286;-87
2023/03/19 04:26:08;;;;;;;18.73;17.33;;;7.50;93.70;;;;;;4975084;28;20210;-88
2023/03/19 04:28:34;;;;;;;17.73;16.23;;;7.50;93.80;;;;;;4974914;28;20171;-88
2023/03/19 04:31:02;;;;;;;20.70;19.00;;;7.50;93.90;;;;;;4973711;28;20319;-88
2023/03/19 04:33:28;;;;;;;21.87;19.97;;;7.60;93.90;;;;;;4973777;28;20198;-87
2023/03/19 04:35:55;;;;;;;20.50;18.80;;;7.70;93.90;;;;;;4974017;28;20192;-87
2023/03/19 04:38:21;;;;;;;19.87;18.37;;;7.60;93.90;;;;;;4973718;28;20186;-88
2023/03/19 04:40:47;;;;;;;20.60;19.20;;;7.60;93.90;;;;;;4973521;28;20186;-88
2023/03/19 04:43:13;;;;;;;21.87;20.37;;;7.60;93.90;;;;;;4973598;28;20732;-88
2023/03/19 04:45:38;;;;;;;21.57;20.07;;;7.70;94.10;;;;;;4973423;28;20305;-88
2023/03/19 04:48:04;;;;;;;22.17;20.57;;;7.80;94.00;;;;;;4973524;28;20182;-87
2023/03/19 04:50:30;;;;;;;23.97;22.00;;;7.80;94.10;;;;;;4973570;28;20538;-88
2023/03/19 04:52:55;;;;;;;24.30;22.33;;;7.90;94.10;;;;;;4973566;28;20616;-87
2023/03/19 04:55:21;;;;;;;22.07;20.37;;;7.90;94.10;;;;;;4973622;28;20680;-87
2023/03/19 04:57:46;;;;;;;23.10;21.50;;;7.80;94.00;;;;;;4974603;28;20261;-88
2023/03/19 05:00:13;;;;;;;22.87;21.17;;;7.80;94.00;;;;;;4973447;28;20264;-88
2023/03/19 05:02:40;;;;;;;24.13;22.50;;;7.70;94.00;;;;;;4973530;28;20200;-87
2023/03/19 05:05:06;;;;;;;23.27;21.27;;;7.70;94.00;;;;;;4974430;28;20206;-88
2023/03/19 05:07:32;;;;;;;23.80;21.87;;;7.70;94.00;;;;;;4973403;28;20562;-87
2023/03/19 05:09:57;;;;;;;22.00;20.00;;;7.70;94.10;;;;;;4973331;28;20175;-87
2023/03/19 05:12:23;;;;;;;21.70;19.90;;;7.90;94.30;;;;;;4957602;28;20178;-88
2023/03/19 05:14:49;;;;;;;21.17;19.50;;;7.70;94.10;;;;;;4977446;28;20210;-88
2023/03/19 05:17:14;;;;;;;20.97;19.17;;;7.50;93.90;;;;;;4977316;28;20665;-88
2023/03/19 05:19:40;;;;;;;19.77;17.37;;;7.30;93.90;;;;;;4960923;28;20193;-87
2023/03/19 05:22:05;;;;;;;18.77;17.27;;;7.30;93.90;;;;;;4978341;28;20195;-87
2023/03/19 05:24:31;;;;;;;20.73;19.13;;;7.30;93.90;;;;;;4978156;28;20635;-87
2023/03/19 05:26:57;;;;;;;20.40;18.63;;;7.30;94.00;;;;;;4978279;28;20170;-87
2023/03/19 05:29:22;;;;;;;21.60;20.00;;;7.30;94.00;;;;;;4960816;28;20201;-88
2023/03/19 05:31:48;;;;;;;18.70;17.20;;;7.30;94.00;;;;;;4960727;28;20179;-88
2023/03/19 05:34:13;;;;;;;18.90;17.40;;;7.30;94.00;;;;;;4960736;28;20632;-87
2023/03/19 05:36:39;;;;;;;17.60;16.30;;;7.20;94.00;;;;;;4978011;28;20183;-87
2023/03/19 05:39:04;;;;;;;17.50;15.80;;;7.20;94.00;;;;;;4960542;28;20182;-88
2023/03/19 05:41:30;;;;;;;17.27;16.07;;;7.20;94.00;;;;;;4960528;28;20183;-88
2023/03/19 05:43:56;;;;;;;17.53;16.13;;;7.20;94.10;;;;;;4960323;28;20198;-88
2023/03/19 05:46:23;;;;;;;18.03;16.63;;;7.20;94.10;;;;;;4976581;28;20174;-87
2023/03/19 05:48:49;;;;;;;18.07;16.27;;;7.20;94.10;;;;;;4978027;28;20175;-87
2023/03/19 05:51:14;;;;;;;18.17;16.57;;;7.20;94.10;;;;;;4977961;28;20205;-87
2023/03/19 05:53:40;;;;;;;19.17;17.30;;;7.30;94.20;;;;;;4976678;28;20233;-87
2023/03/19 05:56:06;;;;;;;18.93;17.53;;;7.30;94.10;;;;;;4976629;28;20198;-87
2023/03/19 05:58:32;;;;;;;18.30;16.60;;;7.20;94.10;;;;;;4977382;28;20174;-87
2023/03/19 06:00:57;;;;;;;18.23;16.70;;;7.20;94.10;;;;;;4977543;28;20182;-87
2023/03/19 06:03:23;;;;;;;18.33;16.93;;;7.30;94.30;;;;;;4960211;28;20174;-87
2023/03/19 06:05:50;;;;;;;19.70;18.10;;;7.30;94.30;;;;;;4977081;28;20213;-87
2023/03/19 06:08:16;;;;;;;20.83;19.07;;;7.40;94.40;;;;;;4977321;28;20549;-87
2023/03/19 06:10:41;;;;;;;20.70;19.03;;;7.40;94.30;;;;;;4976215;28;20615;-87
2023/03/19 06:13:07;;;;;;;21.10;19.40;;;7.30;94.30;;;;;;4976200;28;20269;-87
2023/03/19 06:15:33;;;;;;;22.63;20.63;;;7.30;94.20;;;;;;4976083;28;20285;-87
2023/03/19 06:17:58;;;;;;;21.97;20.47;;;7.30;94.20;;;;;;4977523;28;20326;-87
2023/03/19 06:20:24;;;;;;;22.47;20.60;;;7.30;94.30;;;;;;4975941;28;20270;-87
2023/03/19 06:22:50;;;;;;;23.83;22.07;;;7.30;94.30;;;;;;4977366;28;20229;-87
2023/03/19 06:25:16;;;;;;;22.47;20.80;;;7.30;94.30;;;;;;4974528;28;20246;-87
2023/03/19 06:27:42;;;;;;;24.60;22.70;;;7.30;94.30;;;;;;4975930;28;20178;-87
2023/03/19 06:30:09;;;;;;;25.33;23.30;;;7.50;94.40;;;;;;4975799;28;20186;-87
2023/03/19 06:32:35;;;;;;;26.40;24.60;;;7.50;94.30;;;;;;4977059;28;20175;-87
2023/03/19 06:35:00;;;;;;;26.13;24.33;;;7.50;94.30;;;;;;4975793;28;20245;-87
2023/03/19 06:37:26;;;;;;;25.60;23.80;;;7.50;94.30;;;;;;4960119;28;20183;-87
2023/03/19 06:39:53;;;;;;;27.30;24.80;;;7.60;94.40;;;;;;4976715;28;20171;-87
2023/03/19 06:42:20;;;;;;;26.50;24.40;;;7.60;94.40;;;;;;4976971;28;20170;-87
2023/03/19 06:44:46;;;;;;;26.47;24.33;;;7.80;94.50;;;;;;4976028;28;20214;-87
2023/03/19 06:47:11;;;;;;;26.20;24.13;;;8.00;94.60;;;;;;4975527;28;20179;-87
2023/03/19 06:49:37;;;;;;;24.93;23.07;;;7.90;94.50;;;;;;4976634;28;20186;-87
2023/03/19 06:52:03;;;;;;;24.50;22.57;;;8.00;94.50;;;;;;4975359;28;20645;-88
2023/03/19 06:54:28;;;;;;;25.30;22.30;;;8.00;94.60;;;;;;4976645;28;20281;-89
2023/03/19 06:56:54;;;;;;;23.50;21.60;;;7.90;94.60;;;;;;4976738;28;20282;-89
2023/03/19 06:59:19;;;;;;;27.00;24.63;;;7.90;94.60;;;;;;4977976;28;20249;-86
2023/03/19 07:01:45;;;;;;;25.47;23.27;;;8.00;94.70;;;;;;4975766;28;20186;-89
2023/03/19 07:04:11;;;;;;;24.97;22.97;;;8.00;94.70;;;;;;4975243;28;20213;-88
2023/03/19 07:06:36;;;;;;;27.30;24.77;;;8.10;94.70;;;;;;4976398;28;20712;-88
2023/03/19 07:09:03;;;;;;;25.17;22.90;;;8.10;94.80;;;;;;4976402;28;20167;-87
2023/03/19 07:11:29;;;;;;;27.43;25.20;;;8.20;94.80;;;;;;4976239;28;20257;-88
2023/03/19 07:13:54;;;;;;;26.63;24.50;;;8.20;94.80;;;;;;4976110;28;20693;-87
2023/03/19 07:16:20;;;;;;;27.57;25.17;;;8.30;94.90;;;;;;4974937;28;20552;-88
2023/03/19 07:18:45;;;;;;;28.17;25.73;;;8.30;94.90;;;;;;4958931;28;20179;-88
2023/03/19 07:21:11;;;;;;;28.70;26.33;;;8.30;94.80;;;;;;4958691;28;20225;-88
2023/03/19 07:23:36;;;;;;;27.97;25.57;;;8.40;94.90;;;;;;4958737;28;20227;-87
2023/03/19 07:26:02;;;;;;;29.70;26.83;;;8.50;94.90;;;;;;4976112;28;20194;-87
2023/03/19 07:28:28;;;;;;;30.50;28.03;;;8.60;94.90;;;;;;4976323;28;20574;-88
2023/03/19 07:30:54;;;;;;;30.70;27.87;;;8.70;94.90;;;;;;4974610;28;20222;-88
2023/03/19 07:33:20;;;;;;;30.83;28.20;;;8.80;95.00;;;;;;4974507;28;20179;-87
2023/03/19 07:35:46;;;;;;;33.13;29.87;;;8.80;94.90;;;;;;4974915;28;20224;-88
2023/03/19 07:38:12;;;;;;;31.73;29.07;;;8.90;95.00;;;;;;4958074;28;20179;-88
2023/03/19 07:40:37;;;;;;;31.40;28.80;;;9.00;95.00;;;;;;4975644;28;20170;-88
2023/03/19 07:43:03;;;;;;;33.47;30.50;;;9.10;94.90;;;;;;4975861;28;20234;-88
2023/03/19 07:45:28;;;;;;;34.07;31.27;;;9.10;94.90;;;;;;4974157;28;20731;-88
2023/03/19 07:47:54;;;;;;;33.20;30.00;;;9.20;94.90;;;;;;4974324;28;20273;-88
2023/03/19 07:50:20;;;;;;;33.77;30.93;;;9.30;94.90;;;;;;4958079;28;20170;-88
2023/03/19 07:52:47;;;;;;;34.73;31.50;;;9.40;94.90;;;;;;4974268;28;20174;-88
2023/03/19 07:55:13;;;;;;;32.87;29.97;;;9.50;94.80;;;;;;4974155;28;20645;-88
2023/03/19 07:57:39;;;;;;;31.37;28.83;;;9.60;94.80;;;;;;4974729;28;20262;-88
2023/03/19 08:00:05;;;;;;;34.07;31.30;;;9.80;94.70;;;;;;4974218;28;20214;-88
2023/03/19 08:02:31;;;;;;;31.90;29.23;;;9.90;94.60;;;;;;4974017;28;20183;-87
2023/03/19 08:04:57;;;;;;;30.77;28.17;;;10.00;94.40;;;;;;4958183;28;20693;-87
2023/03/19 08:07:23;;;;;;;29.10;26.90;;;10.00;94.20;;;;;;4961390;28;20552;-88
2023/03/19 08:09:48;;;;;;;28.90;26.47;;;10.10;94.10;;;;;;4958391;28;20167;-88
2023/03/19 08:12:14;;;;;;;29.73;27.10;;;10.10;93.80;;;;;;4957847;28;20175;-89
2023/03/19 08:14:40;;;;;;;27.43;25.23;;;10.20;93.80;;;;;;4974737;28;20202;-88
2023/03/19 08:17:05;;;;;;;27.80;25.67;;;10.30;93.60;;;;;;4973939;28;20183;-88
2023/03/19 08:19:32;;;;;;;27.10;24.60;;;10.30;93.50;;;;;;4973818;28;20565;-88
2023/03/19 08:21:57;;;;;;;29.50;27.00;;;10.30;93.40;;;;;;4974903;28;20190;-87
2023/03/19 08:24:23;;;;;;;28.13;25.73;;;10.30;93.40;;;;;;4973824;28;20562;-88
2023/03/19 08:26:48;;;;;;;28.67;26.40;;;10.40;93.30;;;;;;4973571;28;20736;-88
2023/03/19 08:29:14;;;;;;;27.70;25.67;;;10.40;93.20;;;;;;4973641;28;20266;-88
2023/03/19 08:31:40;;;;;;;27.67;25.37;;;10.50;93.10;;;;;;4973434;28;20182;-88
2023/03/19 08:34:09;;;;;;;25.90;23.83;;;10.50;92.80;;;;;;4973512;28;20196;-88
2023/03/19 08:36:35;;;;;;;26.30;24.20;;;10.50;92.60;;;;;;4974693;28;20322;-88
2023/03/19 08:39:02;;;;;;;25.50;23.30;;;10.50;92.40;;;;;;4973385;28;20230;-89
2023/03/19 08:41:27;;;;;;;25.67;23.43;;;10.40;92.30;;;;;;4973454;28;20265;-88
2023/03/19 08:43:53;;;;;;;25.13;23.13;;;10.40;92.10;;;;;;4973222;28;20720;-88
2023/03/19 08:46:18;;;;;;;25.30;23.50;;;10.40;92.00;;;;;;4973342;28;20221;-88
2023/03/19 08:48:44;;;;;;;27.17;25.20;;;10.40;92.00;;;;;;4972586;28;20237;-89
2023/03/19 08:51:10;;;;;;;28.03;25.90;;;10.60;92.20;;;;;;4957254;28;20178;-88
2023/03/19 08:53:36;;;;;;;32.90;30.20;;;10.70;92.10;;;;;;4974698;28;20245;-88
2023/03/19 08:56:05;;;;;;;31.57;28.93;;;10.90;92.00;;;;;;4973238;28;20567;-88
2023/03/19 08:58:30;;;;;;;30.40;28.20;;;11.00;91.80;;;;;;4973139;28;20183;-88
2023/03/19 09:01:09;;;;;;;28.93;26.60;;;11.20;91.50;;;;;;4973267;28;20178;-88
2023/03/19 09:03:35;;;;;;;27.60;25.20;;;11.50;91.30;;;;;;4973107;28;20186;-88
2023/03/19 09:06:03;;;;;;;25.40;23.40;;;11.50;90.00;;;;;;4973252;28;20260;-88
2023/03/19 09:08:29;;;;;;;26.17;23.97;;;11.60;90.00;;;;;;4973520;28;20213;-88
2023/03/19 09:10:55;;;;;;;25.87;23.77;;;11.60;89.50;;;;;;4973062;28;20555;-88
2023/03/19 09:13:21;;;;;;;25.63;23.67;;;11.80;89.30;;;;;;4973076;28;20206;-88
2023/03/19 09:15:48;;;;;;;25.20;23.13;;;12.00;89.00;;;;;;4973528;28;20206;-88
2023/03/19 09:18:13;;;;;;;26.20;23.90;;;12.20;88.60;;;;;;4974368;28;20206;-88
2023/03/19 09:20:39;;;;;;;24.37;22.47;;;12.20;88.00;;;;;;4974217;28;20193;-88
2023/03/19 09:23:05;;;;;;;24.23;22.47;;;12.20;87.70;;;;;;4973292;28;20179;-88
2023/03/19 09:25:30;;;;;;;23.40;21.60;;;12.30;87.60;;;;;;4975114;28;20209;-88
2023/03/19 09:27:56;;;;;;;23.13;21.30;;;12.40;87.30;;;;;;4973084;28;20178;-88
2023/03/19 09:30:21;;;;;;;22.80;21.03;;;12.60;86.20;;;;;;4957061;28;20649;-88
2023/03/19 09:32:47;;;;;;;23.60;21.70;;;12.70;85.40;;;;;;4974510;28;20171;-88
2023/03/19 09:35:12;;;;;;;22.43;20.73;;;12.70;85.20;;;;;;4972869;28;20300;-88
2023/03/19 09:37:38;;;;;;;20.57;18.83;;;12.70;84.60;;;;;;4972935;28;20219;-88
2023/03/19 09:40:04;;;;;;;22.60;20.50;;;12.80;84.50;;;;;;4972878;28;20198;-89
2023/03/19 09:42:42;;;;;;;22.73;20.93;;;12.80;84.30;;;;;;4972778;28;20202;-88
2023/03/19 09:45:18;;;;;;;23.57;21.77;;;12.80;84.80;;;;;;4972736;28;20264;-89
2023/03/19 09:47:46;;;;;;;23.07;20.83;;;12.80;85.30;;;;;;4974839;28;20209;-89
2023/03/19 09:50:18;;;;;;;22.97;21.17;;;12.80;85.00;;;;;;4973098;28;20184;-89
2023/03/19 09:52:57;;;;;;;24.57;22.57;;;12.70;84.60;;;;;;4974290;28;20175;-89
2023/03/19 09:55:23;;;;;;;24.90;23.07;;;12.80;84.80;;;;;;4972666;28;20209;-89
2023/03/19 09:57:49;;;;;;;24.40;22.40;;;12.80;85.10;;;;;;4974344;28;20175;-89
2023/03/19 10:00:17;;;;;;;24.30;22.33;;;12.90;85.30;;;;;;4974163;28;20183;-89
2023/03/19 10:02:43;;;;;;;24.20;21.93;;;12.90;84.90;;;;;;4959991;28;20592;-89
2023/03/19 10:05:18;;;;;;;24.43;22.57;;;13.00;84.50;;;;;;4977204;28;20257;-89
2023/03/19 10:08:05;;;;;;;23.77;21.87;;;13.00;83.00;;;;;;4976791;28;20177;-89
2023/03/19 10:11:09;;;;;;;24.47;22.43;;;13.10;82.40;;;;;;4976244;28;20176;-89
2023/03/19 10:13:46;;;;;;;24.20;21.97;;;13.10;80.50;;;;;;4962465;28;20191;-89
2023/03/19 10:16:21;;;;;;;23.83;21.83;;;13.20;80.90;;;;;;4976095;28;20178;-88
2023/03/19 10:18:50;;;;;;;24.00;21.90;;;13.20;80.60;;;;;;4975788;28;20167;-89
2023/03/19 10:21:23;;;;;;;22.60;20.90;;;13.30;81.10;;;;;;4977122;28;20198;-89
2023/03/19 10:23:56;;;;;;;22.57;20.47;;;13.30;80.10;;;;;;4975756;28;20297;-89
2023/03/19 10:26:28;;;;;;;22.87;20.87;;;13.40;80.70;;;;;;4975673;28;20199;-88
2023/03/19 10:29:04;;;;;;;23.40;21.33;;;13.50;80.20;;;;;;4976987;28;20190;-88
2023/03/19 10:32:03;;;;;;;23.33;21.53;;;13.50;79.70;;;;;;4975968;28;20175;-89
2023/03/19 10:34:34;;;;;;;22.67;20.70;;;13.60;80.00;;;;;;4974551;28;20210;-89
2023/03/19 10:37:12;;;;;;;22.97;21.27;;;13.70;79.50;;;;;;4975983;28;20591;-88
2023/03/19 10:39:40;;;;;;;24.00;22.10;;;13.70;78.80;;;;;;4975565;28;20183;-89
2023/03/19 10:42:40;;;;;;;22.57;20.77;;;13.80;79.70;;;;;;4976612;28;20174;-88
2023/03/19 10:45:26;;;;;;;21.80;20.03;;;13.80;78.70;;;;;;4976270;28;20250;-88
2023/03/19 10:47:52;;;;;;;21.90;20.10;;;14.30;78.70;;;;;;4975433;28;20177;-89
2023/03/19 10:50:22;;;;;;;21.67;19.77;;;14.50;78.50;;;;;;4976467;28;20166;-88
2023/03/19 10:53:03;;;;;;;23.47;21.47;;;14.60;76.60;;;;;;4975198;28;20265;-89
2023/03/19 10:55:32;;;;;;;21.33;19.73;;;14.80;76.30;;;;;;4976582;28;20699;-89
2023/03/19 10:58:13;;;;;;;22.38;20.77;;;15.20;76.70;;;;;;4975224;28;20179;-88
2023/03/19 11:00:38;;;;;;;22.40;20.63;;;15.20;74.70;;;;;;4975165;28;20181;-88
2023/03/19 11:03:33;;;;;;;22.38;20.58;;;15.30;74.90;;;;;;4976703;28;20183;-89
2023/03/19 11:06:34;;;;;;;21.73;20.13;;;14.90;76.00;;;;;;4975958;28;20611;-88
2023/03/19 11:09:15;;;;;;;22.27;20.42;;;14.70;75.90;;;;;;4975132;28;20249;-88
2023/03/19 11:11:46;;;;;;;21.10;19.60;;;14.60;76.00;;;;;;4974879;28;20264;-87
2023/03/19 11:14:18;;;;;;;18.25;16.85;;;14.50;76.50;;;;;;4975372;28;20615;-88
2023/03/19 11:16:50;;;;;;;17.10;15.50;;;14.50;76.60;;;;;;4974846;28;20178;-88
2023/03/19 11:19:21;;;;;;;17.17;15.87;;;14.40;77.70;;;;;;4975037;28;20277;-88
2023/03/19 11:22:21;;;;;;;17.07;15.47;;;14.40;77.50;;;;;;4975147;28;20534;-88
2023/03/19 11:25:13;;;;;;;16.43;14.93;;;14.30;78.20;;;;;;4974888;28;20256;-88
2023/03/19 11:27:40;;;;;;;16.08;14.75;;;14.30;78.20;;;;;;4971302;28;20189;-89
2023/03/19 11:30:15;;;;;;;14.27;13.17;;;14.30;77.30;;;;;;4974585;28;20229;-89
2023/03/19 11:33:07;;;;;;;14.37;13.27;;;14.30;76.60;;;;;;4975873;28;20257;-90
2023/03/19 11:36:07;;;;;;;14.30;13.20;;;14.20;77.00;;;;;;4975510;28;20257;-88
2023/03/19 11:38:38;;;;;;;15.53;13.90;;;14.20;77.30;;;;;;4958251;28;20650;-88
2023/03/19 11:41:15;;;;;;;15.40;14.10;;;14.10;77.50;;;;;;4974349;28;20199;-88
2023/03/19 11:43:58;;;;;;;15.57;14.37;;;14.10;77.50;;;;;;4975507;28;20605;-88
2023/03/19 11:46:53;;;;;;;15.93;14.40;;;14.10;76.70;;;;;;4975755;28;20242;-88
2023/03/19 11:49:44;;;;;;;16.30;14.80;;;14.20;76.80;;;;;;4974684;28;20246;-88
2023/03/19 11:52:28;;;;;;;17.53;15.83;;;14.30;76.10;;;;;;4974730;28;20202;-88
2023/03/19 11:55:03;;;;;;;18.73;16.80;;;14.30;76.70;;;;;;4974124;28;20318;-88
2023/03/19 11:57:50;;;;;;;15.33;14.07;;;14.40;77.40;;;;;;4974110;28;20262;-87
2023/03/19 12:00:40;;;;;;;16.17;14.67;;;14.40;76.90;;;;;;4975406;28;20198;-88
2023/03/19 12:03:35;;;;;;;15.97;14.37;;;14.30;76.20;;;;;;4975137;28;20257;-88
2023/03/19 12:06:23;;;;;;;15.40;14.13;;;14.30;76.60;;;;;;4974064;28;20229;-87
2023/03/19 12:09:08;;;;;;;15.97;14.87;;;14.20;77.60;;;;;;4973888;28;20220;-88
2023/03/19 12:11:45;;;;;;;16.07;14.73;;;14.20;77.20;;;;;;4975078;28;20163;-87
2023/03/19 12:15:05;;;;;;;16.47;15.27;;;14.20;77.70;;;;;;4973780;28;20548;-87
2023/03/19 12:17:43;;;;;;;16.43;14.60;;;14.10;77.80;;;;;;4899896;29;20273;-85
2023/03/19 12:20:44;;;;;;;15.23;13.93;;;14.00;78.00;;;;;;4963989;28;20561;-86
2023/03/19 12:23:37;;;;;;;15.30;14.10;;;14.10;77.90;;;;;;4973651;28;20179;-86
2023/03/19 12:26:05;;;;;;;16.10;14.90;;;14.10;78.60;;;;;;4974818;28;20606;-87
2023/03/19 12:28:39;;;;;;;16.47;15.07;;;14.20;77.60;;;;;;4974789;28;20182;-89
2023/03/19 12:31:43;;;;;;;17.23;15.53;;;14.10;76.70;;;;;;4975183;28;20337;-88
2023/03/19 12:34:22;;;;;;;15.73;14.43;;;14.20;77.50;;;;;;4974781;28;20304;-87
2023/03/19 12:37:14;;;;;;;17.63;16.00;;;14.10;76.90;;;;;;4974805;28;20198;-88
2023/03/19 12:39:57;;;;;;;16.37;15.07;;;14.00;76.60;;;;;;4963154;28;20193;-86
2023/03/19 12:42:27;;;;;;;16.70;15.10;;;13.80;77.90;;;;;;4974318;28;20261;-87
2023/03/19 12:44:56;;;;;;;17.17;15.60;;;13.80;77.90;;;;;;4975020;28;20210;-87